Time;durP1;ratioP1;P1;durP2;ratioP2;P2;SDS_P1;SDS_P2;PMS_P1;PMS_P2;Temp;Humidity;BMP_temperature;BMP_pressure;BME280_temperature;BME280_humidity;BME280_pressure;Samples;Min_cycle;Max_cycle;Signal;HPM_P1;HPM_P2
2023/10/27 00:01:43;;;;;;;0.00;0.00;;;;;;;13.75;100.00;96859.09;5094238;28;20039;-47
2023/10/27 00:04:09;;;;;;;0.00;0.00;;;;;;;13.63;100.00;96861.22;5092770;28;20068;-47
2023/10/27 00:06:34;;;;;;;0.00;0.00;;;;;;;13.60;100.00;96867.00;5092814;28;20061;-47
2023/10/27 00:09:01;;;;;;;0.00;0.00;;;;;;;13.61;100.00;96852.78;5092752;28;20024;-47
2023/10/27 00:11:27;;;;;;;0.00;0.00;;;;;;;13.73;100.00;96842.75;5092737;28;20023;-48
2023/10/27 00:13:53;;;;;;;0.00;0.00;;;;;;;13.77;100.00;96838.53;5092317;28;20028;-48
2023/10/27 00:16:18;;;;;;;0.00;0.00;;;;;;;13.89;100.00;96832.19;5093894;28;20394;-47
2023/10/27 00:18:44;;;;;;;0.00;0.00;;;;;;;13.82;100.00;96845.63;5093845;28;20487;-48
2023/10/27 00:21:10;;;;;;;0.00;0.00;;;;;;;13.68;100.00;96842.78;5093830;28;20020;-47
2023/10/27 00:23:36;;;;;;;0.00;0.00;;;;;;;13.61;100.00;96852.78;5092459;28;20068;-48
2023/10/27 00:26:02;;;;;;;0.00;0.00;;;;;;;13.65;100.00;96860.97;5092418;28;20020;-48
2023/10/27 00:28:29;;;;;;;0.00;0.00;;;;;;;13.68;100.00;96865.69;5093604;28;20393;-48
2023/10/27 00:30:55;;;;;;;1.17;1.10;;;;;;;13.92;100.00;96860.66;5093629;28;20020;-48
2023/10/27 00:33:20;;;;;;;0.98;0.88;;;;;;;14.23;100.00;96856.09;5092170;28;20513;-48
2023/10/27 00:35:51;;;;;;;6.80;1.85;;;;;;;14.31;100.00;96854.75;5092192;28;20493;-48
2023/10/27 00:38:16;;;;;;;0.75;0.75;;;;;;;14.28;100.00;96856.06;5092203;28;20239;-48
2023/10/27 00:40:42;;;;;;;0.40;0.40;;;;;;;14.38;100.00;96849.97;5093454;28;20432;-48
2023/10/27 00:43:08;;;;;;;0.10;0.10;;;;;;;14.41;100.00;96852.09;5093318;28;20028;-47
2023/10/27 00:45:33;;;;;;;0.45;0.45;;;;;;;14.70;100.00;96865.44;5093382;28;20024;-47
2023/10/27 00:47:59;;;;;;;0.05;0.05;;;;;;;15.10;100.00;96871.56;5093593;28;20477;-47
2023/10/27 00:50:26;;;;;;;0.00;0.00;;;;;;;14.97;100.00;96878.25;5093253;28;20505;-47
2023/10/27 00:52:53;;;;;;;0.28;0.28;;;;;;;14.69;100.00;96889.47;5091808;28;20089;-47
2023/10/27 00:55:19;;;;;;;0.22;0.22;;;;;;;14.56;100.00;96901.41;5093074;28;20024;-46
2023/10/27 00:57:48;;;;;;;0.00;0.00;;;;;;;14.63;100.00;96909.03;5093118;28;20025;-46
2023/10/27 01:00:14;;;;;;;0.00;0.00;;;;;;;14.71;100.00;96903.22;5093263;28;20392;-46
2023/10/27 01:02:40;;;;;;;0.00;0.00;;;;;;;14.70;100.00;96928.03;5092958;28;20020;-46
2023/10/27 01:05:08;;;;;;;0.00;0.00;;;;;;;14.64;100.00;96931.75;5092957;28;20016;-46
2023/10/27 01:07:35;;;;;;;0.00;0.00;;;;;;;14.75;100.00;96941.22;5093080;28;20031;-46
2023/10/27 01:10:02;;;;;;;0.00;0.00;;;;;;;14.63;100.00;96935.44;5092748;28;20024;-46
2023/10/27 01:12:27;;;;;;;0.00;0.00;;;;;;;14.51;100.00;96939.16;5091300;28;20051;-47
2023/10/27 01:14:53;;;;;;;0.00;0.00;;;;;;;14.53;100.00;96950.22;5091419;28;20023;-47
2023/10/27 01:17:19;;;;;;;0.00;0.00;;;;;;;14.36;100.00;96955.00;5091364;28;20024;-47
2023/10/27 01:19:45;;;;;;;0.45;0.45;;;;;;;14.41;100.00;96968.22;5092723;28;20544;-47
2023/10/27 01:22:15;;;;;;;0.00;0.00;;;;;;;14.44;100.00;96962.38;5092637;28;20048;-47
2023/10/27 01:24:41;;;;;;;0.00;0.00;;;;;;;14.42;100.00;96967.13;5091950;28;20036;-47
2023/10/27 01:27:07;;;;;;;0.00;0.00;;;;;;;14.55;100.00;96963.94;5092551;28;20024;-48
2023/10/27 01:29:33;;;;;;;0.00;0.00;;;;;;;14.48;100.00;96970.56;5092508;28;20027;-48
2023/10/27 01:31:59;;;;;;;0.00;0.00;;;;;;;14.43;100.00;96960.81;5091151;28;20038;-47
2023/10/27 01:34:25;;;;;;;0.00;0.00;;;;;;;14.35;100.00;96977.19;5092359;28;20062;-47
2023/10/27 01:36:51;;;;;;;0.00;0.00;;;;;;;14.28;100.00;96968.75;5091061;28;20115;-47
2023/10/27 01:39:17;;;;;;;0.00;0.00;;;;;;;14.31;100.00;96974.28;5091119;28;20024;-48
2023/10/27 01:41:43;;;;;;;0.00;0.00;;;;;;;14.40;100.00;96969.25;5091011;28;20028;-48
2023/10/27 01:44:08;;;;;;;0.00;0.00;;;;;;;14.37;100.00;96981.13;5090968;28;20524;-48
2023/10/27 01:46:34;;;;;;;0.00;0.00;;;;;;;14.63;100.00;96969.75;5090931;28;20024;-47
2023/10/27 01:49:00;;;;;;;0.00;0.00;;;;;;;15.14;100.00;96980.13;5092215;28;20097;-48
2023/10/27 01:51:26;;;;;;;0.00;0.00;;;;;;;15.23;100.00;96975.88;5090886;28;20456;-48
2023/10/27 01:53:51;;;;;;;0.00;0.00;;;;;;;15.28;100.00;96975.84;5091092;28;20020;-48
2023/10/27 01:56:17;;;;;;;0.00;0.00;;;;;;;15.28;100.00;96985.63;5092091;28;20162;-48
2023/10/27 01:58:46;;;;;;;0.00;0.00;;;;;;;15.31;100.00;96993.00;5090801;28;20470;-48
2023/10/27 02:01:15;;;;;;;0.00;0.00;;;;;;;15.47;100.00;97004.28;5092048;28;20021;-48
2023/10/27 02:03:41;;;;;;;0.75;0.70;;;;;;;15.57;100.00;97006.84;5092258;28;20091;-48
2023/10/27 02:06:07;;;;;;;0.00;0.00;;;;;;;15.67;100.00;97013.94;5090639;28;20024;-48
2023/10/27 02:08:36;;;;;;;0.00;0.00;;;;;;;15.70;100.00;97018.69;5091991;28;20069;-48
2023/10/27 02:11:03;;;;;;;0.00;0.00;;;;;;;15.77;100.00;97011.25;5091887;28;20059;-48
2023/10/27 02:13:29;;;;;;;0.00;0.00;;;;;;;15.73;100.00;97018.94;5091662;28;20080;-48
2023/10/27 02:15:55;;;;;;;0.00;0.00;;;;;;;15.83;100.00;97022.59;5091860;28;20073;-48
2023/10/27 02:18:21;;;;;;;0.00;0.00;;;;;;;15.84;100.00;97017.03;5091856;28;20024;-48
2023/10/27 02:20:48;;;;;;;0.00;0.00;;;;;;;15.81;100.00;97030.81;5073768;28;20173;-48
2023/10/27 02:23:15;;;;;;;0.00;0.00;;;;;;;15.71;100.00;97036.91;5090486;28;20028;-48
2023/10/27 02:25:41;;;;;;;0.32;0.32;;;;;;;15.60;100.00;97046.00;5091767;28;20103;-48
2023/10/27 02:28:07;;;;;;;0.08;0.08;;;;;;;15.57;100.00;97036.75;5073674;28;20508;-48
2023/10/27 02:30:32;;;;;;;0.00;0.00;;;;;;;15.65;100.00;97032.72;5091794;28;20103;-48
2023/10/27 02:32:58;;;;;;;0.00;0.00;;;;;;;15.88;100.00;97030.53;5091543;28;20032;-48
2023/10/27 02:35:25;;;;;;;0.00;0.00;;;;;;;15.97;100.00;97037.56;5090699;28;20480;-48
2023/10/27 02:37:53;;;;;;;0.00;0.00;;;;;;;16.08;100.00;97040.16;5095810;28;20465;-48
2023/10/27 02:40:19;;;;;;;0.05;0.03;;;;;;;16.10;100.00;97046.75;5094466;28;20112;-48
2023/10/27 02:42:45;;;;;;;0.00;0.00;;;;;;;16.22;100.00;97040.31;5094682;28;20459;-48
2023/10/27 02:45:10;;;;;;;0.05;0.05;;;;;;;16.27;100.00;97037.63;5095636;28;20020;-47
2023/10/27 02:47:36;;;;;;;0.00;0.00;;;;;;;16.33;100.00;97044.47;5095690;28;20032;-48
2023/10/27 02:50:02;;;;;;;0.00;0.00;;;;;;;16.28;100.00;97055.88;5095555;28;20027;-48
2023/10/27 02:52:28;;;;;;;0.00;0.00;;;;;;;16.53;100.00;97057.50;5094244;28;20489;-48
2023/10/27 02:54:54;;;;;;;5.70;1.30;;;;;;;16.62;100.00;97065.66;5095407;28;20048;-49
2023/10/27 02:57:19;;;;;;;0.20;0.20;;;;;;;16.44;100.00;97071.63;5095426;28;20028;-48
2023/10/27 02:59:45;;;;;;;0.00;0.00;;;;;;;16.11;100.00;97079.31;5095441;28;20498;-48
2023/10/27 03:02:11;;;;;;;6.22;1.85;;;;;;;16.20;100.00;97075.00;5094011;28;20500;-48
2023/10/27 03:04:36;;;;;;;0.08;0.08;;;;;;;16.22;100.00;97078.16;5094026;28;20083;-48
2023/10/27 03:07:02;;;;;;;0.00;0.00;;;;;;;16.08;100.00;97093.09;5095310;28;20020;-48
2023/10/27 03:09:28;;;;;;;0.45;0.38;;;;;;;16.05;100.00;97097.06;5093952;28;20091;-48
2023/10/27 03:11:54;;;;;;;0.00;0.00;;;;;;;16.17;100.00;97102.00;5093670;28;20052;-49
2023/10/27 03:14:20;;;;;;;0.00;0.00;;;;;;;16.00;100.00;97102.41;5093814;28;20020;-49
2023/10/27 03:16:45;;;;;;;0.38;0.38;;;;;;;15.66;100.00;97103.06;5093795;28;20024;-48
2023/10/27 03:19:11;;;;;;;0.00;0.00;;;;;;;15.27;100.00;97105.59;5095045;28;20024;-49
2023/10/27 03:21:37;;;;;;;0.00;0.00;;;;;;;14.86;100.00;97108.34;5093726;28;20031;-49
2023/10/27 03:24:03;;;;;;;0.00;0.00;;;;;;;14.63;100.00;97118.41;5094879;28;20052;-49
2023/10/27 03:26:29;;;;;;;0.00;0.00;;;;;;;14.44;100.00;97109.41;5094917;28;20025;-48
2023/10/27 03:28:54;;;;;;;0.63;0.63;;;;;;;14.14;100.00;97122.28;5093569;28;20501;-48
2023/10/27 03:31:20;;;;;;;0.03;0.03;;;;;;;14.26;100.00;97124.69;5093512;28;20066;-48
2023/10/27 03:33:46;;;;;;;0.00;0.00;;;;;;;14.66;100.00;97133.72;5093677;28;20474;-49
2023/10/27 03:36:11;;;;;;;0.00;0.00;;;;;;;15.03;100.00;97134.47;5093404;28;20055;-49
2023/10/27 03:38:37;;;;;;;0.00;0.00;;;;;;;15.07;100.00;97135.50;5093391;28;20050;-49
2023/10/27 03:41:03;;;;;;;0.00;0.00;;;;;;;14.98;100.00;97141.34;5093334;28;20464;-48
2023/10/27 03:43:29;;;;;;;0.10;0.10;;;;;;;15.21;100.00;97135.75;5094569;28;20108;-49
2023/10/27 03:45:54;;;;;;;0.00;0.00;;;;;;;14.91;100.00;97140.84;5093169;28;20089;-49
2023/10/27 03:48:20;;;;;;;0.00;0.00;;;;;;;14.58;100.00;97147.44;5092428;28;20050;-48
2023/10/27 03:50:46;;;;;;;0.00;0.00;;;;;;;14.05;100.00;97155.53;5093050;28;20060;-48
2023/10/27 03:53:11;;;;;;;0.00;0.00;;;;;;;13.59;100.00;97152.75;5094298;28;20017;-48
2023/10/27 03:55:37;;;;;;;0.03;0.03;;;;;;;13.31;100.00;97151.28;5093313;28;20481;-49
2023/10/27 03:58:13;;;;;;;0.00;0.00;;;;;;;12.90;100.00;97151.03;5092948;28;20028;-49
2023/10/27 04:00:39;;;;;;;0.00;0.00;;;;;;;12.56;100.00;97143.41;5093023;28;20028;-49
2023/10/27 04:03:04;;;;;;;0.00;0.00;;;;;;;12.17;100.00;97149.63;5094168;28;20081;-49
2023/10/27 04:05:30;;;;;;;0.00;0.00;;;;;;;11.97;100.00;97146.78;5094089;28;20057;-49
2023/10/27 04:07:56;;;;;;;0.10;0.10;;;;;;;12.06;100.00;97152.41;5094137;28;20094;-48
2023/10/27 04:10:21;;;;;;;0.00;0.00;;;;;;;11.91;100.00;97147.75;5092705;28;20058;-49
2023/10/27 04:12:47;;;;;;;0.00;0.00;;;;;;;11.68;100.00;97151.44;5092258;28;20151;-49
2023/10/27 04:15:13;;;;;;;0.00;0.00;;;;;;;11.52;100.00;97161.75;5092659;28;20614;-49
2023/10/27 04:17:39;;;;;;;0.00;0.00;;;;;;;11.39;100.00;97162.91;5093908;28;20366;-48
2023/10/27 04:20:05;;;;;;;0.00;0.00;;;;;;;11.39;100.00;97162.13;5092510;28;20031;-49
2023/10/27 04:22:31;;;;;;;0.00;0.00;;;;;;;11.40;100.00;97161.06;5093764;28;20047;-48
2023/10/27 04:24:57;;;;;;;0.00;0.00;;;;;;;11.83;100.00;97159.50;5092477;28;20450;-48
2023/10/27 04:27:22;;;;;;;0.00;0.00;;;;;;;12.46;100.00;97161.72;5092384;28;20027;-48
2023/10/27 04:29:48;;;;;;;0.00;0.00;;;;;;;12.26;100.00;97167.59;5093711;28;20115;-48
2023/10/27 04:32:15;;;;;;;0.52;0.52;;;;;;;11.92;100.00;97171.19;5093648;28;20024;-48
2023/10/27 04:34:43;;;;;;;0.00;0.00;;;;;;;11.82;100.00;97172.88;5093417;28;20030;-48
2023/10/27 04:37:08;;;;;;;0.00;0.00;;;;;;;12.06;100.00;97168.97;5093492;28;20028;-48
2023/10/27 04:39:34;;;;;;;0.00;0.00;;;;;;;12.26;100.00;97175.47;5092494;28;20603;-48
2023/10/27 04:42:00;;;;;;;0.00;0.00;;;;;;;12.44;100.00;97169.88;5093391;28;20432;-48
2023/10/27 04:44:25;;;;;;;0.00;0.00;;;;;;;12.61;100.00;97169.75;5093467;28;20520;-49
2023/10/27 04:46:51;;;;;;;0.00;0.00;;;;;;;12.50;100.00;97166.22;5093328;28;20370;-49
2023/10/27 04:49:18;;;;;;;0.00;0.00;;;;;;;12.34;100.00;97164.50;5093356;28;20027;-48
2023/10/27 04:51:44;;;;;;;0.00;0.00;;;;;;;12.32;100.00;97174.50;5093275;28;20046;-48
2023/10/27 04:54:10;;;;;;;0.00;0.00;;;;;;;12.42;100.00;97171.16;5093172;28;20032;-48
2023/10/27 04:56:36;;;;;;;0.00;0.00;;;;;;;12.42;100.00;97174.59;5093130;28;20028;-48
2023/10/27 04:59:02;;;;;;;0.00;0.00;;;;;;;12.49;100.00;97167.25;5091059;28;20081;-49
2023/10/27 05:01:27;;;;;;;0.00;0.00;;;;;;;12.33;100.00;97170.81;5091500;28;20517;-48
2023/10/27 05:03:53;;;;;;;0.00;0.00;;;;;;;12.04;100.00;97170.25;5093014;28;20141;-48
2023/10/27 05:06:19;;;;;;;0.00;0.00;;;;;;;11.87;100.00;97178.19;5092983;28;20069;-49
2023/10/27 05:08:45;;;;;;;1.10;0.65;;;;;;;11.78;100.00;97167.31;5092944;28;20031;-48
2023/10/27 05:11:11;;;;;;;0.00;0.00;;;;;;;11.74;100.00;97176.72;5092928;28;20095;-48
2023/10/27 05:13:37;;;;;;;0.30;0.30;;;;;;;11.74;100.00;97177.50;5091259;28;20047;-48
2023/10/27 05:16:04;;;;;;;0.00;0.00;;;;;;;11.77;100.00;97184.91;5091449;28;20119;-48
2023/10/27 05:18:29;;;;;;;0.03;0.03;;;;;;;11.97;100.00;97194.91;5092773;28;20028;-48
2023/10/27 05:20:55;;;;;;;0.05;0.05;;;;;;;12.36;100.00;97199.25;5091451;28;20125;-48
2023/10/27 05:23:21;;;;;;;0.17;0.17;;;;;;;12.93;100.00;97196.06;5091637;28;20390;-48
2023/10/27 05:25:47;;;;;;;0.10;0.10;;;;;;;13.21;100.00;97204.69;5092598;28;20020;-48
2023/10/27 05:28:12;;;;;;;0.10;0.10;;;;;;;13.30;100.00;97211.09;5092598;28;20027;-49
2023/10/27 05:30:43;;;;;;;0.28;0.28;;;;;;;13.16;100.00;97215.19;5091240;28;20035;-48
2023/10/27 05:33:09;;;;;;;0.00;0.00;;;;;;;12.90;100.00;97209.72;5092394;28;20034;-48
2023/10/27 05:35:35;;;;;;;0.00;0.00;;;;;;;12.78;100.00;97217.78;5091218;28;20020;-48
2023/10/27 05:38:00;;;;;;;0.00;0.00;;;;;;;12.45;100.00;97213.53;5091117;28;20043;-48
2023/10/27 05:40:31;;;;;;;0.00;0.00;;;;;;;12.11;100.00;97213.75;5092399;28;20116;-48
2023/10/27 05:42:57;;;;;;;0.00;0.00;;;;;;;11.96;100.00;97221.44;5092626;28;20036;-48
2023/10/27 05:45:23;;;;;;;0.17;0.17;;;;;;;11.85;100.00;97219.69;5092268;28;20032;-48
2023/10/27 05:47:49;;;;;;;0.00;0.00;;;;;;;11.79;100.00;97214.38;5090981;28;20081;-48
2023/10/27 05:50:15;;;;;;;0.00;0.00;;;;;;;11.82;100.00;97213.09;5092223;28;20483;-48
2023/10/27 05:52:40;;;;;;;0.00;0.00;;;;;;;11.85;100.00;97203.91;5090832;28;20020;-48
2023/10/27 05:55:06;;;;;;;0.00;0.00;;;;;;;11.97;100.00;97204.59;5092150;28;20046;-48
2023/10/27 05:57:32;;;;;;;0.00;0.00;;;;;;;12.02;100.00;97204.69;5092139;28;20105;-48
2023/10/27 05:59:58;;;;;;;0.00;0.00;;;;;;;11.91;100.00;97202.97;5090786;28;20095;-48
2023/10/27 06:02:24;;;;;;;0.00;0.00;;;;;;;11.95;100.00;97194.38;5090768;28;20036;-48
2023/10/27 06:04:51;;;;;;;0.00;0.00;;;;;;;12.06;100.00;97192.63;5090746;28;20047;-48
2023/10/27 06:07:17;;;;;;;0.05;0.05;;;;;;;12.13;100.00;97177.47;5074006;28;20023;-48
2023/10/27 06:09:44;;;;;;;0.08;0.08;;;;;;;12.10;100.00;97170.06;5090631;28;20585;-48
2023/10/27 06:12:09;;;;;;;0.00;0.00;;;;;;;12.10;100.00;97179.78;5091400;28;20036;-49
2023/10/27 06:14:35;;;;;;;0.00;0.00;;;;;;;12.04;100.00;97180.78;5090608;28;20635;-48
2023/10/27 06:17:02;;;;;;;0.15;0.15;;;;;;;12.31;100.00;97181.56;5090543;28;20028;-48
2023/10/27 06:19:30;;;;;;;0.32;0.32;;;;;;;12.55;100.00;97195.22;5091864;28;20393;-48
2023/10/27 06:22:02;;;;;;;0.00;0.00;;;;;;;12.79;100.00;97198.31;5091870;28;20392;-48
2023/10/27 06:24:28;;;;;;;0.00;0.00;;;;;;;12.77;100.00;97200.41;5090551;28;20032;-48
2023/10/27 06:26:54;;;;;;;0.00;0.00;;;;;;;12.67;100.00;97207.44;5073750;28;20115;-48
2023/10/27 06:29:19;;;;;;;0.00;0.00;;;;;;;12.61;100.00;97211.06;5090507;28;20470;-48
2023/10/27 06:31:45;;;;;;;0.57;0.57;;;;;;;12.42;100.00;97200.91;5090452;28;20065;-48
2023/10/27 06:34:11;;;;;;;0.00;0.00;;;;;;;12.37;100.00;97195.56;5091662;28;20034;-48
2023/10/27 06:36:36;;;;;;;0.00;0.00;;;;;;;12.32;100.00;97204.22;5091659;28;20078;-48
2023/10/27 06:39:02;;;;;;;0.00;0.00;;;;;;;12.39;100.00;97215.34;5091792;28;20103;-48
2023/10/27 06:41:28;;;;;;;0.57;0.57;;;;;;;12.43;100.00;97209.56;5090342;28;20078;-48
2023/10/27 06:43:53;;;;;;;0.10;0.10;;;;;;;12.41;100.00;97225.59;5090371;28;20417;-48
2023/10/27 06:46:19;;;;;;;0.00;0.00;;;;;;;12.30;100.00;97237.06;5091570;28;20026;-48
2023/10/27 06:48:45;;;;;;;0.00;0.00;;;;;;;12.46;100.00;97248.56;5056848;28;20108;-48
2023/10/27 06:51:10;;;;;;;0.15;0.15;;;;;;;12.89;100.00;97245.00;5090267;28;20032;-48
2023/10/27 06:53:36;;;;;;;0.00;0.00;;;;;;;12.94;100.00;97252.94;5090165;28;20085;-48
2023/10/27 06:56:02;;;;;;;0.00;0.00;;;;;;;12.67;100.00;97246.91;5091460;28;20078;-48
2023/10/27 06:58:28;;;;;;;0.00;0.00;;;;;;;12.40;100.00;97255.59;5090224;28;20032;-48
2023/10/27 07:00:53;;;;;;;0.00;0.00;;;;;;;12.45;100.00;97263.53;5090136;28;20116;-48
2023/10/27 07:03:19;;;;;;;0.00;0.00;;;;;;;12.95;100.00;97264.28;5090175;28;20378;-48
2023/10/27 07:05:45;;;;;;;0.03;0.03;;;;;;;13.24;100.00;97267.41;5090135;28;20028;-48
2023/10/27 07:08:10;;;;;;;0.00;0.00;;;;;;;13.28;100.00;97265.88;5090185;28;20028;-48
2023/10/27 07:10:36;;;;;;;0.00;0.00;;;;;;;13.54;100.00;97271.31;5091444;28;20549;-48
2023/10/27 07:13:02;;;;;;;0.00;0.00;;;;;;;13.89;100.00;97268.09;5089917;28;20044;-49
2023/10/27 07:15:28;;;;;;;0.08;0.08;;;;;;;14.33;100.00;97267.75;5091334;28;20027;-48
2023/10/27 07:17:53;;;;;;;0.10;0.10;;;;;;;14.29;100.00;97264.03;5091324;28;20039;-48
2023/10/27 07:20:19;;;;;;;0.00;0.00;;;;;;;13.81;100.00;97265.94;5091323;28;20051;-49
2023/10/27 07:22:45;;;;;;;0.00;0.00;;;;;;;13.42;100.00;97270.72;5092014;28;20024;-49
2023/10/27 07:25:11;;;;;;;0.00;0.00;;;;;;;13.23;100.00;97275.56;5093703;28;20028;-48
2023/10/27 07:27:37;;;;;;;0.10;0.10;;;;;;;13.31;100.00;97275.13;5093555;28;20035;-48
2023/10/27 07:30:03;;;;;;;0.10;0.10;;;;;;;13.29;100.00;97283.28;5094843;28;20012;-48
2023/10/27 07:32:28;;;;;;;0.10;0.10;;;;;;;13.25;100.00;97284.00;5094879;28;20032;-48
2023/10/27 07:34:55;;;;;;;0.00;0.00;;;;;;;13.39;100.00;97295.72;5094652;28;20020;-48
2023/10/27 07:37:23;;;;;;;0.00;0.00;;;;;;;13.88;100.00;97297.34;5094749;28;20505;-48
2023/10/27 07:39:49;;;;;;;0.00;0.00;;;;;;;14.66;100.00;97294.78;5094647;28;20028;-48
2023/10/27 07:42:14;;;;;;;0.00;0.00;;;;;;;14.50;100.00;97301.84;5094680;28;20392;-48
2023/10/27 07:44:40;;;;;;;0.00;0.00;;;;;;;14.17;100.00;97303.84;5094606;28;20073;-48
2023/10/27 07:47:06;;;;;;;0.03;0.03;;;;;;;14.17;100.00;97303.84;5094556;28;20379;-48
2023/10/27 07:49:32;;;;;;;0.00;0.00;;;;;;;14.27;100.00;97304.94;5094530;28;20502;-48
2023/10/27 07:51:57;;;;;;;0.00;0.00;;;;;;;14.56;100.00;97306.09;5093160;28;20028;-48
2023/10/27 07:54:23;;;;;;;0.00;0.00;;;;;;;15.41;100.00;97309.38;5094323;28;20028;-48
2023/10/27 07:56:49;;;;;;;0.00;0.00;;;;;;;15.73;100.00;97304.59;5094360;28;20115;-49
2023/10/27 07:59:15;;;;;;;0.00;0.00;;;;;;;15.45;100.00;97302.50;5094269;28;20020;-48
2023/10/27 08:01:40;;;;;;;0.00;0.00;;;;;;;15.82;100.00;97296.16;5094311;28;20028;-48
2023/10/27 08:04:06;;;;;;;0.00;0.00;;;;;;;16.26;100.00;97296.28;5093019;28;20031;-48
2023/10/27 08:06:32;;;;;;;0.00;0.00;;;;;;;16.58;100.00;97290.56;5094208;28;20039;-48
2023/10/27 08:08:59;;;;;;;0.20;0.20;;;;;;;17.51;100.00;97287.25;5094216;28;20440;-48
2023/10/27 08:11:24;;;;;;;0.00;0.00;;;;;;;18.40;100.00;97286.84;5092860;28;20114;-47
2023/10/27 08:13:50;;;;;;;0.00;0.00;;;;;;;19.15;100.00;97294.03;5093811;28;20497;-46
2023/10/27 08:16:16;;;;;;;0.35;0.35;;;;;;;20.39;100.00;97297.16;5092699;28;20012;-46
2023/10/27 08:18:42;;;;;;;0.20;0.20;;;;;;;21.19;100.00;97292.22;5093990;28;20032;-46
2023/10/27 08:21:08;;;;;;;0.00;0.00;;;;;;;22.04;100.00;97297.56;5092596;28;20034;-46
2023/10/27 08:23:33;;;;;;;0.00;0.00;;;;;;;22.52;100.00;97297.53;5092550;28;20028;-46
2023/10/27 08:25:59;;;;;;;2.30;0.43;;;;;;;22.14;100.00;97306.06;5092499;28;20027;-46
2023/10/27 08:28:26;;;;;;;0.00;0.00;;;;;;;22.62;100.00;97296.47;5093742;28;20071;-46
2023/10/27 08:30:53;;;;;;;0.00;0.00;;;;;;;23.53;100.00;97297.38;5093679;28;20016;-46
2023/10/27 08:33:19;;;;;;;0.10;0.10;;;;;;;24.46;100.00;97305.66;5093384;28;20077;-46
2023/10/27 08:35:45;;;;;;;1.38;1.27;;;;;;;25.21;100.00;97302.31;5093531;28;20020;-46
2023/10/27 08:38:10;;;;;;;2.40;2.25;;;;;;;25.91;100.00;97306.97;5093830;28;20032;-46
2023/10/27 08:40:36;;;;;;;0.55;0.55;;;;;;;26.36;100.00;97295.31;5093707;28;20020;-46
2023/10/27 08:43:03;;;;;;;0.25;0.25;;;;;;;26.93;100.00;97296.22;5092194;28;20076;-46
2023/10/27 08:45:31;;;;;;;0.08;0.08;;;;;;;26.92;100.00;97289.25;5092106;28;20402;-47
2023/10/27 08:48:00;;;;;;;0.28;0.28;;;;;;;26.87;100.00;97293.00;5092053;28;20089;-47
2023/10/27 08:50:26;;;;;;;0.20;0.20;;;;;;;27.07;100.00;97283.16;5075338;28;20020;-47
2023/10/27 08:52:51;;;;;;;0.00;0.00;;;;;;;27.24;100.00;97292.88;5093260;28;20042;-47
2023/10/27 08:55:20;;;;;;;0.00;0.00;;;;;;;27.38;100.00;97289.75;5093240;28;20067;-47
2023/10/27 08:57:45;;;;;;;0.10;0.10;;;;;;;27.78;100.00;97280.75;5093217;28;20077;-47
2023/10/27 09:00:12;;;;;;;0.00;0.00;;;;;;;28.33;100.00;97275.50;5091817;28;20065;-47
2023/10/27 09:02:38;;;;;;;0.08;0.08;;;;;;;28.59;99.59;97274.16;5093080;28;20020;-47
2023/10/27 09:05:09;;;;;;;0.00;0.00;;;;;;;28.33;99.21;97278.19;5093262;28;20518;-47
2023/10/27 09:07:35;;;;;;;0.00;0.00;;;;;;;28.51;99.09;97288.63;5091740;28;20054;-47
2023/10/27 09:10:03;;;;;;;0.00;0.00;;;;;;;28.84;99.14;97280.09;5092951;28;20028;-47
2023/10/27 09:12:30;;;;;;;0.82;0.82;;;;;;;29.26;100.00;97277.44;5092329;28;20059;-47
2023/10/27 09:15:04;;;;;;;0.75;0.70;;;;;;;29.63;99.36;97274.22;5093059;28;20017;-47
2023/10/27 09:17:31;;;;;;;0.20;0.20;;;;;;;29.64;93.54;97283.09;5092854;28;20024;-47
2023/10/27 09:20:09;;;;;;;0.00;0.00;;;;;;;29.33;91.11;97279.50;5091511;28;20028;-47
2023/10/27 09:22:36;;;;;;;0.00;0.00;;;;;;;29.03;88.56;97282.00;5092695;28;20024;-46
2023/10/27 09:25:17;;;;;;;0.52;0.30;;;;;;;28.72;85.73;97270.19;5092936;28;20021;-47
2023/10/27 09:27:44;;;;;;;0.00;0.00;;;;;;;28.90;91.73;97267.09;5092538;28;20042;-47
2023/10/27 09:30:12;;;;;;;0.00;0.00;;;;;;;29.13;89.35;97269.84;5091272;28;20058;-47
2023/10/27 09:32:40;;;;;;;0.40;0.40;;;;;;;29.23;87.04;97275.44;5092515;28;20126;-47
2023/10/27 09:35:17;;;;;;;0.00;0.00;;;;;;;28.61;83.67;97266.50;5092379;28;20073;-46
2023/10/27 09:37:43;;;;;;;0.00;0.00;;;;;;;28.77;86.59;97261.81;5092496;28;20032;-47
2023/10/27 09:40:11;;;;;;;0.20;0.20;;;;;;;28.75;82.03;97261.38;5092319;28;20500;-47
2023/10/27 09:42:38;;;;;;;0.10;0.10;;;;;;;28.61;84.63;97266.50;5092320;28;20078;-47
2023/10/27 09:45:09;;;;;;;0.13;0.13;;;;;;;28.93;85.16;97250.94;5091808;28;20019;-47
2023/10/27 09:47:43;;;;;;;3.60;0.77;;;;;;;28.82;72.58;97247.25;5092171;28;20020;-47
2023/10/27 09:50:19;;;;;;;2.45;0.60;;;;;;;28.83;68.66;97251.50;5092328;28;20119;-47
2023/10/27 09:52:46;;;;;;;3.03;0.50;;;;;;;28.57;62.78;97252.13;5092220;28;20028;-47
2023/10/27 09:55:13;;;;;;;5.70;0.60;;;;;;;28.47;59.58;97254.25;5074067;28;20137;-47
2023/10/27 09:57:42;;;;;;;2.00;0.65;;;;;;;28.35;59.68;97248.16;5091033;28;20445;-47
2023/10/27 10:00:10;;;;;;;1.02;0.55;;;;;;;28.01;53.08;97254.00;5090839;28;20032;-47
2023/10/27 10:02:36;;;;;;;2.15;0.52;;;;;;;27.64;56.92;97239.97;5092113;28;20016;-47
2023/10/27 10:05:03;;;;;;;2.15;0.65;;;;;;;27.85;52.96;97240.50;5092051;28;20024;-47
2023/10/27 10:07:42;;;;;;;2.45;0.50;;;;;;;27.87;48.64;97240.19;5090670;28;20032;-47
2023/10/27 10:10:30;;;;;;;0.43;0.30;;;;;;;27.30;48.95;97251.06;5091015;28;20073;-46
2023/10/27 10:13:01;;;;;;;2.20;0.50;;;;;;;27.06;47.97;97254.69;5091665;28;20107;-47
2023/10/27 10:15:32;;;;;;;1.52;0.50;;;;;;;26.50;46.65;97255.41;5091884;28;20115;-47
2023/10/27 10:17:59;;;;;;;2.42;0.60;;;;;;;26.37;46.03;97259.22;5091951;28;20055;-47
2023/10/27 10:20:47;;;;;;;1.52;0.60;;;;;;;26.12;48.75;97263.84;5090798;28;20031;-47
2023/10/27 10:23:14;;;;;;;2.45;0.70;;;;;;;25.76;46.19;97256.56;5091874;28;20028;-47
2023/10/27 10:25:54;;;;;;;1.73;0.50;;;;;;;25.56;45.96;97266.25;5091836;28;20047;-47
2023/10/27 10:28:20;;;;;;;1.83;0.47;;;;;;;25.02;46.44;97270.53;5073826;28;20032;-47
2023/10/27 10:31:16;;;;;;;1.33;0.40;;;;;;;24.84;45.53;97291.38;5091761;28;20065;-47
2023/10/27 10:33:48;;;;;;;4.35;0.40;;;;;;;24.62;47.01;97284.44;5091615;28;20024;-47
2023/10/27 10:36:22;;;;;;;1.92;0.50;;;;;;;24.81;46.14;97275.94;5091841;28;20054;-47
2023/10/27 10:38:59;;;;;;;0.98;0.40;;;;;;;24.76;42.48;97280.72;5090486;28;20039;-47
2023/10/27 10:41:43;;;;;;;0.80;0.38;;;;;;;24.76;44.16;97272.66;5091668;28;20494;-47
2023/10/27 10:44:15;;;;;;;3.85;0.40;;;;;;;24.98;42.81;97268.84;5091667;28;20026;-47
2023/10/27 10:46:43;;;;;;;5.28;0.70;;;;;;;24.80;41.14;97262.84;5090384;28;20033;-47
2023/10/27 10:49:21;;;;;;;1.08;0.60;;;;;;;24.84;42.67;97272.59;5091545;28;20071;-47
2023/10/27 10:51:54;;;;;;;1.23;0.38;;;;;;;24.67;42.59;97270.84;5091607;28;20115;-47
2023/10/27 10:54:28;;;;;;;3.10;0.50;;;;;;;24.73;40.28;97276.81;5091494;28;20028;-47
2023/10/27 10:57:08;;;;;;;2.75;0.43;;;;;;;24.96;39.42;97279.13;5091564;28;20051;-47
2023/10/27 10:59:35;;;;;;;2.60;0.50;;;;;;;25.39;37.38;97259.94;5095349;28;20452;-47
2023/10/27 11:02:01;;;;;;;3.05;0.40;;;;;;;25.77;37.23;97266.94;5095392;28;20099;-47
2023/10/27 11:04:31;;;;;;;0.60;0.43;;;;;;;26.22;35.51;97265.28;5095312;28;20099;-47
2023/10/27 11:06:59;;;;;;;1.10;0.45;;;;;;;26.07;33.86;97266.75;5095699;28;20452;-48
2023/10/27 11:09:24;;;;;;;0.85;0.40;;;;;;;25.52;34.85;97258.84;5095294;28;20055;-48
2023/10/27 11:11:50;;;;;;;3.42;0.35;;;;;;;25.66;34.69;97257.78;5093878;28;20110;-47
2023/10/27 11:14:16;;;;;;;1.08;0.30;;;;;;;26.31;34.53;97253.28;5093886;28;20107;-48
2023/10/27 11:16:41;;;;;;;1.13;0.40;;;;;;;26.31;33.07;97252.50;5094978;28;20028;-47
2023/10/27 11:19:18;;;;;;;1.35;0.38;;;;;;;26.24;33.21;97239.63;5093764;28;20036;-47
2023/10/27 11:21:43;;;;;;;1.15;0.43;;;;;;;26.26;33.51;97242.00;5095679;28;20036;-47
2023/10/27 11:24:10;;;;;;;2.10;0.70;;;;;;;26.73;32.97;97232.59;5094979;28;20028;-47
2023/10/27 11:26:44;;;;;;;2.72;0.63;;;;;;;27.20;32.73;97234.63;5093559;28;20024;-47